createdAt,value
2018-09-21T00:00:03.803Z,7.30
2018-09-21T00:02:35.710Z,7.30
2018-09-21T00:05:06.062Z,7.80
2018-09-21T00:07:37.741Z,8.20
2018-09-21T00:10:09.309Z,7.20
2018-09-21T00:12:38.934Z,7.10
2018-09-21T00:15:08.740Z,8.00
2018-09-21T00:17:38.454Z,6.93
2018-09-21T00:20:08.128Z,7.70
2018-09-21T00:22:37.638Z,7.13
2018-09-21T00:25:07.150Z,7.10
2018-09-21T00:27:36.714Z,7.67
2018-09-21T00:30:07.374Z,7.00
2018-09-21T00:32:38.151Z,7.13
2018-09-21T00:35:09.765Z,7.27
2018-09-21T00:37:40.805Z,7.30
2018-09-21T00:40:12.722Z,6.80
2018-09-21T00:42:42.146Z,7.40
2018-09-21T00:45:14.646Z,7.43
2018-09-21T00:47:44.507Z,7.00
2018-09-21T00:50:14.093Z,7.40
2018-09-21T00:52:45.669Z,7.33
2018-09-21T00:55:15.439Z,7.23
2018-09-21T00:57:45.373Z,7.47
2018-09-21T01:00:16.204Z,8.07
2018-09-21T01:02:46.979Z,8.17
2018-09-21T01:05:17.556Z,7.70
2018-09-21T01:07:47.322Z,7.20
2018-09-21T01:10:19.149Z,7.50
2018-09-21T01:12:51.797Z,7.90
2018-09-21T01:15:21.507Z,8.60
2018-09-21T01:17:51.434Z,7.30
2018-09-21T01:20:21.235Z,8.60
2018-09-21T01:22:57.189Z,7.53
2018-09-21T01:25:26.839Z,8.13
2018-09-21T01:28:00.458Z,7.50
2018-09-21T01:30:30.421Z,7.80
2018-09-21T01:32:59.994Z,7.83
2018-09-21T01:35:29.737Z,8.10
2018-09-21T01:37:59.413Z,7.43
2018-09-21T01:40:29.978Z,8.10
2018-09-21T01:43:03.189Z,7.73
2018-09-21T01:45:33.391Z,7.23
2018-09-21T01:48:03.913Z,8.07
2018-09-21T01:50:34.480Z,7.93
2018-09-21T01:53:06.204Z,8.00
2018-09-21T01:55:36.938Z,8.33
2018-09-21T01:58:08.004Z,7.20
2018-09-21T02:00:40.041Z,7.83
2018-09-21T02:03:12.953Z,7.67
2018-09-21T02:05:43.701Z,7.37
2018-09-21T02:08:14.303Z,7.97
2018-09-21T02:10:44.340Z,7.97
2018-09-21T02:13:14.192Z,7.47
2018-09-21T02:15:44.474Z,7.60
2018-09-21T02:18:14.272Z,7.17
2018-09-21T02:20:44.093Z,7.30
2018-09-21T02:23:14.003Z,7.33
2018-09-21T02:25:43.711Z,7.47
2018-09-21T02:28:13.383Z,7.80
2018-09-21T02:30:44.174Z,7.00
2018-09-21T02:33:14.030Z,9.33
2018-09-21T02:35:46.611Z,7.80
2018-09-21T02:38:16.590Z,6.93
2018-09-21T02:40:47.185Z,7.57
2018-09-21T02:43:19.868Z,6.90
2018-09-21T02:45:50.945Z,6.87
2018-09-21T02:48:25.337Z,7.50
2018-09-21T02:50:55.137Z,7.83
2018-09-21T02:53:26.581Z,7.57
2018-09-21T02:55:57.461Z,7.07
2018-09-21T02:58:27.382Z,7.10
2018-09-21T03:00:59.258Z,7.03
2018-09-21T03:03:28.955Z,6.43
2018-09-21T03:06:00.498Z,7.27
2018-09-21T03:08:30.489Z,9.20
2018-09-21T03:11:01.723Z,7.20
2018-09-21T03:13:32.608Z,6.73
2018-09-21T03:16:17.976Z,7.37
2018-09-21T03:18:47.958Z,6.37
2018-09-21T03:21:19.402Z,7.27
2018-09-21T03:23:49.218Z,7.97
2018-09-21T03:26:21.422Z,7.20
2018-09-21T03:28:51.354Z,6.43
2018-09-21T03:31:21.387Z,6.87
2018-09-21T03:33:51.372Z,6.80
2018-09-21T03:36:21.299Z,7.00
2018-09-21T03:38:51.858Z,7.33
2018-09-21T03:41:21.693Z,6.70
2018-09-21T03:43:51.401Z,6.70
2018-09-21T03:46:24.633Z,6.43
2018-09-21T03:48:58.135Z,6.57
2018-09-21T03:51:28.496Z,6.27
2018-09-21T03:53:59.175Z,6.30
2018-09-21T03:56:29.029Z,6.33
2018-09-21T03:59:00.933Z,6.57
2018-09-21T04:01:31.809Z,8.37
2018-09-21T04:04:03.130Z,7.10
2018-09-21T04:06:33.705Z,6.43
2018-09-21T04:09:06.511Z,6.63
2018-09-21T04:11:38.494Z,6.87
2018-09-21T04:14:10.449Z,7.07
2018-09-21T04:16:42.313Z,6.60
2018-09-21T04:19:12.737Z,6.63
2018-09-21T04:21:43.230Z,6.77
2018-09-21T04:24:13.182Z,6.37
2018-09-21T04:26:45.100Z,6.20
2018-09-21T04:29:16.090Z,6.53
2018-09-21T04:31:47.695Z,7.00
2018-09-21T04:34:18.110Z,6.43
2018-09-21T04:36:52.540Z,6.47
2018-09-21T04:39:23.157Z,7.00
2018-09-21T04:41:53.027Z,6.03
2018-09-21T04:44:25.725Z,6.90
2018-09-21T04:47:03.673Z,6.97
2018-09-21T04:49:34.757Z,7.00
2018-09-21T04:52:05.063Z,7.40
2018-09-21T04:54:35.461Z,7.40
2018-09-21T04:57:06.280Z,6.83
2018-09-21T04:59:37.265Z,7.10
2018-09-21T05:02:08.716Z,7.37
2018-09-21T05:04:43.055Z,7.17
2018-09-21T05:07:13.590Z,7.47
2018-09-21T05:09:48.184Z,7.10
2018-09-21T05:12:24.063Z,7.40
2018-09-21T05:14:56.657Z,7.33
2018-09-21T05:17:32.337Z,7.93
2018-09-21T05:20:05.538Z,7.40
2018-09-21T05:22:38.422Z,6.90
2018-09-21T05:25:15.681Z,7.10
2018-09-21T05:27:51.782Z,6.97
2018-09-21T05:30:24.231Z,7.20
2018-09-21T05:32:56.015Z,7.30
2018-09-21T05:35:25.656Z,7.43
2018-09-21T05:37:55.389Z,7.03
2018-09-21T05:40:27.844Z,7.67
2018-09-21T05:42:58.335Z,7.40
2018-09-21T05:45:29.885Z,7.30
2018-09-21T05:48:01.414Z,7.17
2018-09-21T05:50:36.657Z,7.03
2018-09-21T05:53:08.083Z,6.57
2018-09-21T05:55:37.840Z,6.83
2018-09-21T05:58:09.656Z,7.67
2018-09-21T06:00:39.929Z,7.13
2018-09-21T06:03:10.382Z,6.87
2018-09-21T06:05:40.933Z,7.00
2018-09-21T06:08:10.745Z,7.13
2018-09-21T06:10:42.756Z,7.40
2018-09-21T06:13:13.542Z,6.87
2018-09-21T06:15:43.336Z,6.70
2018-09-21T06:18:16.693Z,7.43
2018-09-21T06:20:50.193Z,7.27
2018-09-21T06:23:21.473Z,6.50
2018-09-21T06:25:51.969Z,6.87
2018-09-21T06:28:23.063Z,7.23
2018-09-21T06:30:55.070Z,7.00
2018-09-21T06:33:27.109Z,6.83
2018-09-21T06:35:57.030Z,6.83
2018-09-21T06:38:29.663Z,6.53
2018-09-21T06:41:00.895Z,6.70
2018-09-21T06:46:18.362Z,6.73
2018-09-21T06:48:53.167Z,6.70
2018-09-21T06:51:22.814Z,6.33
2018-09-21T06:53:53.439Z,7.23
2018-09-21T06:56:24.606Z,7.40
2018-09-21T06:58:55.847Z,6.37
2018-09-21T07:01:25.686Z,6.20
2018-09-21T07:03:55.366Z,6.60
2018-09-21T07:06:25.610Z,6.97
2018-09-21T07:08:56.258Z,6.90
2018-09-21T07:11:25.859Z,6.37
2018-09-21T07:13:55.816Z,6.63
2018-09-21T07:16:25.545Z,6.03
2018-09-21T07:18:56.740Z,7.17
2018-09-21T07:21:27.357Z,6.10
2018-09-21T07:23:57.247Z,6.37
2018-09-21T07:26:29.946Z,6.17
2018-09-21T07:29:02.429Z,6.97
2018-09-21T07:31:33.975Z,6.40
2018-09-21T07:34:03.792Z,5.93
2018-09-21T07:36:33.493Z,6.50
2018-09-21T07:39:04.737Z,6.10
2018-09-21T07:41:34.309Z,6.07
2018-09-21T07:44:04.714Z,6.10
2018-09-21T07:46:34.489Z,6.17
2018-09-21T07:49:05.817Z,6.50
2018-09-21T07:51:35.744Z,6.27
2018-09-21T07:54:05.662Z,6.17
2018-09-21T07:56:36.840Z,6.77
2018-09-21T07:59:09.116Z,6.33
2018-09-21T08:01:38.741Z,5.90
2018-09-21T08:04:08.966Z,6.00
2018-09-21T08:06:39.509Z,5.70
2018-09-21T08:09:10.872Z,5.83
2018-09-21T08:11:40.374Z,6.00
2018-09-21T08:14:10.802Z,6.07
2018-09-21T08:16:44.963Z,6.43
2018-09-21T08:19:14.702Z,6.00
2018-09-21T08:21:44.576Z,6.10
2018-09-21T08:24:14.057Z,6.20
2018-09-21T08:26:44.107Z,5.33
2018-09-21T08:29:13.988Z,6.37
2018-09-21T08:31:44.885Z,5.73
2018-09-21T08:34:14.476Z,6.37
2018-09-21T08:36:44.248Z,5.80
2018-09-21T08:39:15.158Z,5.83
2018-09-21T08:41:46.234Z,6.40
2018-09-21T08:44:17.152Z,6.27
2018-09-21T08:46:47.174Z,6.33
2018-09-21T08:49:20.039Z,6.27
2018-09-21T08:51:50.398Z,5.87
2018-09-21T08:54:21.435Z,6.40
2018-09-21T08:56:51.364Z,6.07
2018-09-21T08:59:21.186Z,6.10
2018-09-21T09:01:52.065Z,6.00
2018-09-21T09:04:23.014Z,5.80
2018-09-21T09:06:52.727Z,5.80
2018-09-21T09:09:28.237Z,5.40
2018-09-21T09:11:58.664Z,6.17
2018-09-21T09:14:28.533Z,5.97
2018-09-21T09:17:00.593Z,5.70
2018-09-21T09:19:34.704Z,6.07
2018-09-21T09:22:06.140Z,5.93
2018-09-21T09:24:36.113Z,5.67
2018-09-21T09:27:06.908Z,6.00
2018-09-21T09:29:37.884Z,5.77
2018-09-21T09:32:07.883Z,5.97
2018-09-21T09:34:39.263Z,6.03
2018-09-21T09:37:09.238Z,6.30
2018-09-21T09:39:40.246Z,5.17
2018-09-21T09:42:16.560Z,5.90
2018-09-21T09:44:47.275Z,5.60
2018-09-21T09:47:17.368Z,5.70
2018-09-21T09:49:47.211Z,6.33
2018-09-21T09:52:17.206Z,5.70
2018-09-21T09:54:47.214Z,8.00
2018-09-21T09:57:17.222Z,10.27
2018-09-21T09:59:47.163Z,9.60
2018-09-21T10:02:16.953Z,8.10
2018-09-21T10:04:46.800Z,6.40
2018-09-21T10:07:16.447Z,7.50
2018-09-21T10:09:46.099Z,7.60
2018-09-21T10:12:16.328Z,6.83
2018-09-21T10:14:45.984Z,6.43
2018-09-21T10:17:18.589Z,5.83
2018-09-21T10:19:48.232Z,5.43
2018-09-21T10:22:19.828Z,6.10
2018-09-21T10:24:49.526Z,6.47
2018-09-21T10:27:19.419Z,6.07
2018-09-21T10:29:49.094Z,5.70
2018-09-21T10:32:19.376Z,5.37
2018-09-21T10:34:50.288Z,4.93
2018-09-21T10:37:22.858Z,4.60
2018-09-21T10:39:53.085Z,4.97
2018-09-21T10:42:23.881Z,5.10
2018-09-21T10:44:53.608Z,6.00
2018-09-21T10:47:27.395Z,5.47
2018-09-21T10:50:00.509Z,5.27
2018-09-21T10:52:30.951Z,5.27
2018-09-21T10:55:01.749Z,5.03
2018-09-21T10:57:31.913Z,5.57
2018-09-21T11:00:01.784Z,5.30
2018-09-21T11:02:31.625Z,5.50
2018-09-21T11:05:08.950Z,5.23
2018-09-21T11:07:42.072Z,5.47
2018-09-21T11:10:12.085Z,7.07
2018-09-21T11:12:41.861Z,7.83
2018-09-21T11:15:11.632Z,5.53
2018-09-21T11:17:41.537Z,5.57
2018-09-21T11:20:11.349Z,5.67
2018-09-21T11:22:44.645Z,5.50
2018-09-21T11:25:15.016Z,6.07
2018-09-21T11:27:44.781Z,5.90
2018-09-21T11:30:15.627Z,5.20
2018-09-21T11:32:45.438Z,5.30
2018-09-21T11:35:15.256Z,6.07
2018-09-21T11:37:45.032Z,5.80
2018-09-21T11:40:15.052Z,5.67
2018-09-21T11:42:45.400Z,5.30
2018-09-21T11:45:17.159Z,6.10
2018-09-21T11:47:47.623Z,5.37
2018-09-21T11:50:17.243Z,5.80
2018-09-21T11:52:47.121Z,5.40
2018-09-21T11:55:23.541Z,6.37
2018-09-21T11:57:54.518Z,6.50
2018-09-21T12:00:25.389Z,6.10
2018-09-21T12:02:58.687Z,5.80
2018-09-21T12:05:28.317Z,5.97
2018-09-21T12:07:58.084Z,5.80
2018-09-21T12:10:29.604Z,5.83
2018-09-21T12:13:03.310Z,6.10
2018-09-21T12:15:33.103Z,5.97
2018-09-21T12:18:04.389Z,5.77
2018-09-21T12:20:34.260Z,6.10
2018-09-21T12:23:04.289Z,5.60
2018-09-21T12:25:34.615Z,5.97
2018-09-21T12:28:04.473Z,7.53
2018-09-21T12:30:37.807Z,6.43
2018-09-21T12:33:14.240Z,7.07
2018-09-21T12:35:44.158Z,6.30
2018-09-21T12:38:14.000Z,6.10
2018-09-21T12:40:44.809Z,6.30
2018-09-21T12:43:15.223Z,6.20
2018-09-21T12:45:44.871Z,10.63
2018-09-21T12:48:14.470Z,8.30
2018-09-21T12:50:44.068Z,8.17
2018-09-21T12:53:13.686Z,7.40
2018-09-21T12:55:43.418Z,5.73
2018-09-21T12:58:13.257Z,6.30
2018-09-21T13:00:48.042Z,8.77
2018-09-21T13:03:17.980Z,6.37
2018-09-21T13:05:50.734Z,6.33
2018-09-21T13:08:20.511Z,6.33
2018-09-21T13:10:50.739Z,5.77
2018-09-21T13:13:20.544Z,5.77
2018-09-21T13:15:52.859Z,6.37
2018-09-21T13:18:24.278Z,6.00
2018-09-21T13:20:57.767Z,7.00
2018-09-21T13:23:27.592Z,6.00
2018-09-21T13:25:57.801Z,6.07
2018-09-21T13:28:28.740Z,5.60
2018-09-21T13:31:00.953Z,5.97
2018-09-21T13:33:33.424Z,5.27
2018-09-21T13:36:04.159Z,4.87
2018-09-21T13:38:34.267Z,5.10
2018-09-21T13:41:07.317Z,4.83
2018-09-21T13:43:37.339Z,4.83
2018-09-21T13:46:08.117Z,5.20
2018-09-21T13:48:38.246Z,4.83
2018-09-21T13:51:10.766Z,4.80
2018-09-21T13:53:40.480Z,4.70
2018-09-21T13:56:10.216Z,4.40
2018-09-21T13:58:41.130Z,4.40
2018-09-21T14:01:21.261Z,4.63
2018-09-21T14:04:32.916Z,4.60
2018-09-21T14:07:07.767Z,4.60
2018-09-21T14:09:39.288Z,4.17
2018-09-21T14:12:09.919Z,4.53
2018-09-21T14:14:40.994Z,3.63
2018-09-21T14:17:11.301Z,4.10
2018-09-21T14:19:46.628Z,3.87
2018-09-21T14:22:19.022Z,3.87
2018-09-21T14:24:49.012Z,4.00
2018-09-21T14:27:20.569Z,4.17
2018-09-21T14:29:50.707Z,3.90
2018-09-21T14:32:27.256Z,3.70
2018-09-21T14:34:57.063Z,4.00
2018-09-21T14:37:34.173Z,3.97
2018-09-21T14:40:04.582Z,4.20
2018-09-21T14:42:41.972Z,4.00
2018-09-21T14:45:12.448Z,4.37
2018-09-21T14:47:42.460Z,4.20
2018-09-21T14:50:15.208Z,3.90
2018-09-21T14:52:45.076Z,3.50
2018-09-21T14:55:15.129Z,3.77
2018-09-21T14:57:45.032Z,3.60
2018-09-21T15:00:14.921Z,3.53
2018-09-21T15:02:45.370Z,3.60
2018-09-21T15:05:15.187Z,4.03
2018-09-21T15:07:44.965Z,4.43
2018-09-21T15:10:15.439Z,4.07
2018-09-21T15:12:45.308Z,4.57
2018-09-21T15:15:15.257Z,3.47
2018-09-21T15:17:45.253Z,5.27
2018-09-21T15:20:15.437Z,3.20
2018-09-21T15:22:45.099Z,3.47
2018-09-21T15:25:15.635Z,3.70
2018-09-21T15:27:45.239Z,2.87
2018-09-21T15:30:18.423Z,3.00
2018-09-21T15:32:48.404Z,2.93
2018-09-21T15:35:18.009Z,2.93
2018-09-21T15:37:47.564Z,2.87
2018-09-21T15:40:17.274Z,2.07
2018-09-21T15:42:47.029Z,1.90
2018-09-21T15:45:17.127Z,2.30
2018-09-21T15:47:47.516Z,1.80
2018-09-21T15:50:19.686Z,2.20
2018-09-21T15:52:49.872Z,2.13
2018-09-21T15:55:19.767Z,1.80
2018-09-21T15:57:50.472Z,1.77
2018-09-21T16:00:20.305Z,1.63
2018-09-21T16:02:50.105Z,1.80
2018-09-21T16:05:20.693Z,1.70
2018-09-21T16:07:50.625Z,2.50
2018-09-21T16:10:20.292Z,1.50
2018-09-21T16:12:50.118Z,1.87
2018-09-21T16:15:19.900Z,1.70
2018-09-21T16:17:49.505Z,1.90
2018-09-21T16:20:19.149Z,2.93
2018-09-21T16:22:49.538Z,1.57
2018-09-21T16:25:20.242Z,1.60
2018-09-21T16:27:49.761Z,1.60
2018-09-21T16:30:19.396Z,1.57
2018-09-21T16:32:49.083Z,1.63
2018-09-21T16:35:18.430Z,1.60
2018-09-21T16:37:47.952Z,1.50
2018-09-21T16:40:17.272Z,1.50
2018-09-21T16:42:46.898Z,1.50
2018-09-21T16:45:16.572Z,1.63
2018-09-21T16:47:46.920Z,1.77
2018-09-21T16:50:17.461Z,1.60
2018-09-21T16:52:47.346Z,1.50
2018-09-21T16:55:17.061Z,2.20
2018-09-21T16:57:46.645Z,1.90
2018-09-21T17:00:16.675Z,1.80
2018-09-21T17:02:46.771Z,1.90
2018-09-21T17:05:16.631Z,2.00
2018-09-21T17:07:46.969Z,2.97
2018-09-21T17:10:18.541Z,2.03
2018-09-21T17:12:48.477Z,2.10
2018-09-21T17:15:19.335Z,1.93
2018-09-21T17:17:49.051Z,2.00
2018-09-21T17:20:23.953Z,2.43
2018-09-21T17:22:53.647Z,2.43
2018-09-21T17:25:23.948Z,2.33
2018-09-21T17:27:55.180Z,2.30
2018-09-21T17:30:32.521Z,2.80
2018-09-21T17:33:03.288Z,2.00
2018-09-21T17:35:32.939Z,3.13
2018-09-21T17:38:02.603Z,1.97
2018-09-21T17:40:34.373Z,2.70
2018-09-21T17:43:04.123Z,2.80
2018-09-21T17:45:34.033Z,2.50
2018-09-21T17:48:03.763Z,3.47
2018-09-21T17:50:33.673Z,2.93
2018-09-21T17:53:03.471Z,2.50
2018-09-21T17:55:33.159Z,2.67
2018-09-21T17:58:02.643Z,2.60
2018-09-21T18:00:32.308Z,3.37
2018-09-21T18:03:02.089Z,2.47
2018-09-21T18:05:34.597Z,2.87
2018-09-21T18:08:05.150Z,3.10
2018-09-21T18:10:34.867Z,3.50
2018-09-21T18:13:06.347Z,3.43
2018-09-21T18:15:42.134Z,3.20
2018-09-21T18:18:13.245Z,3.30
2018-09-21T18:20:42.826Z,4.43
2018-09-21T18:23:12.542Z,3.60
2018-09-21T18:25:43.009Z,3.63
2018-09-21T18:28:12.843Z,3.40
2018-09-21T18:30:44.518Z,4.70
2018-09-21T18:33:14.448Z,3.70
2018-09-21T18:35:44.266Z,3.37
2018-09-21T18:38:14.191Z,3.23
2018-09-21T18:40:43.953Z,3.70
2018-09-21T18:43:21.827Z,3.23
2018-09-21T18:45:51.691Z,3.23
2018-09-21T18:48:22.162Z,2.70
2018-09-21T18:50:51.686Z,2.83
2018-09-21T18:53:23.557Z,2.73
2018-09-21T18:55:53.417Z,3.93
2018-09-21T18:58:23.269Z,4.20
2018-09-21T19:00:52.780Z,3.00
2018-09-21T19:03:23.107Z,3.80
2018-09-21T19:05:55.580Z,2.43
2018-09-21T19:08:25.418Z,2.40
2018-09-21T19:10:59.573Z,2.30
2018-09-21T19:13:29.823Z,3.00
2018-09-21T19:16:03.908Z,2.50
2018-09-21T19:18:37.961Z,3.13
2018-09-21T19:21:10.326Z,2.50
2018-09-21T19:23:40.678Z,2.70
2018-09-21T19:26:15.309Z,2.73
2018-09-21T19:31:35.442Z,2.70
2018-09-21T19:34:06.344Z,2.87
2018-09-21T19:36:37.743Z,2.63
2018-09-21T19:39:12.537Z,3.00
2018-09-21T19:41:42.679Z,2.80
2018-09-21T19:44:13.487Z,2.90
2018-09-21T19:46:45.087Z,3.07
2018-09-21T19:49:15.591Z,3.20
2018-09-21T19:51:45.982Z,3.60
2018-09-21T19:54:16.180Z,2.80
2018-09-21T19:56:52.435Z,3.17
2018-09-21T19:59:24.431Z,3.43
2018-09-21T20:01:54.960Z,4.27
2018-09-21T20:04:24.684Z,3.57
2018-09-21T20:06:54.611Z,3.00
2018-09-21T20:09:24.308Z,3.10
2018-09-21T20:12:02.166Z,3.27
2018-09-21T20:14:31.986Z,3.63
2018-09-21T20:17:02.187Z,4.30
2018-09-21T20:19:35.076Z,3.20
2018-09-21T20:22:08.325Z,3.50
2018-09-21T20:24:38.847Z,3.50
2018-09-21T20:27:11.316Z,4.10
2018-09-21T20:29:41.199Z,3.10
2018-09-21T20:32:15.894Z,3.07
2018-09-21T20:34:45.388Z,3.63
2018-09-21T20:37:14.919Z,3.60
2018-09-21T20:39:44.617Z,3.80
2018-09-21T20:42:17.191Z,3.70
2018-09-21T20:44:47.075Z,3.63
2018-09-21T20:47:17.652Z,3.80
2018-09-21T20:49:47.706Z,3.83
2018-09-21T20:52:20.903Z,3.33
2018-09-21T20:54:54.014Z,3.73
2018-09-21T20:57:23.895Z,3.67
2018-09-21T20:59:54.205Z,3.47
2018-09-21T21:02:29.376Z,3.07
2018-09-21T21:04:58.976Z,3.37
2018-09-21T21:07:32.363Z,3.60
2018-09-21T21:10:01.894Z,3.97
2018-09-21T21:12:32.367Z,3.40
2018-09-21T21:15:02.000Z,3.47
2018-09-21T21:17:31.649Z,3.77
2018-09-21T21:20:02.637Z,3.57
2018-09-21T21:22:33.274Z,3.30
2018-09-21T21:25:04.076Z,3.30
2018-09-21T21:27:38.895Z,3.47
2018-09-21T21:30:09.610Z,2.87
2018-09-21T21:32:40.320Z,3.27
2018-09-21T21:35:09.951Z,3.57
2018-09-21T21:37:40.020Z,3.30
2018-09-21T21:40:09.669Z,3.47
2018-09-21T21:42:39.431Z,4.77
2018-09-21T21:45:10.395Z,3.33
2018-09-21T21:47:40.173Z,3.60
2018-09-21T21:50:09.907Z,3.30
2018-09-21T21:52:40.589Z,3.10
2018-09-21T21:55:10.360Z,3.93
2018-09-21T21:57:44.409Z,3.30
2018-09-21T22:00:14.299Z,3.37
2018-09-21T22:02:49.900Z,3.17
2018-09-21T22:05:22.925Z,2.97
2018-09-21T22:07:55.834Z,3.50
2018-09-21T22:10:26.397Z,2.90
2018-09-21T22:13:01.899Z,2.80
2018-09-21T22:15:32.773Z,2.73
2018-09-21T22:18:04.127Z,3.00
2018-09-21T22:20:45.280Z,3.43
2018-09-21T22:23:17.432Z,2.27
2018-09-21T22:25:57.382Z,2.70
2018-09-21T22:28:32.722Z,3.70
2018-09-21T22:31:03.296Z,2.50
2018-09-21T22:33:35.741Z,3.00
2018-09-21T22:36:06.590Z,2.53
2018-09-21T22:38:37.445Z,2.30
2018-09-21T22:41:07.802Z,2.37
2018-09-21T22:43:37.408Z,2.10
2018-09-21T22:46:09.781Z,2.03
2018-09-21T22:48:41.879Z,2.20
2018-09-21T22:51:11.670Z,2.20
2018-09-21T22:53:41.555Z,1.87
2018-09-21T22:56:11.284Z,2.17
2018-09-21T22:58:41.036Z,1.87
2018-09-21T23:01:14.881Z,1.70
2018-09-21T23:03:44.748Z,1.90
2018-09-21T23:06:15.137Z,2.10
2018-09-21T23:08:45.151Z,1.80
2018-09-21T23:11:15.139Z,1.77
2018-09-21T23:13:44.859Z,1.93
2018-09-21T23:16:14.434Z,1.57
2018-09-21T23:18:45.387Z,1.63
2018-09-21T23:21:15.061Z,1.70
2018-09-21T23:23:45.215Z,1.50
2018-09-21T23:26:15.643Z,1.40
2018-09-21T23:28:45.348Z,1.73
2018-09-21T23:31:14.994Z,1.30
2018-09-21T23:33:45.529Z,1.73
2018-09-21T23:36:15.450Z,1.23
2018-09-21T23:38:45.195Z,1.50
2018-09-21T23:41:15.799Z,1.63
2018-09-21T23:43:48.021Z,1.40
2018-09-21T23:46:17.835Z,1.40
2018-09-21T23:48:47.880Z,1.47
2018-09-21T23:51:17.385Z,1.80
2018-09-21T23:53:46.793Z,1.53
2018-09-21T23:56:16.194Z,1.33
2018-09-21T23:58:45.866Z,1.40
